createdAt,value
2023-05-01T00:00:40.833Z,1011.44
2023-05-01T00:05:40.150Z,1011.43
2023-05-01T00:10:39.399Z,1011.41
2023-05-01T00:15:38.652Z,1011.36
2023-05-01T00:20:37.924Z,1011.38
2023-05-01T00:25:37.201Z,1011.32
2023-05-01T00:30:36.466Z,1011.35
2023-05-01T00:35:35.761Z,1011.24
2023-05-01T00:40:36.024Z,1011.29
2023-05-01T00:45:34.325Z,1011.25
2023-05-01T00:50:34.569Z,1011.24
2023-05-01T00:55:32.826Z,1011.24
2023-05-01T01:00:31.124Z,1011.20
2023-05-01T01:05:32.430Z,1011.18
2023-05-01T01:10:31.681Z,1011.15
2023-05-01T01:15:30.956Z,1011.09
2023-05-01T01:20:30.258Z,1010.98
2023-05-01T01:25:28.503Z,1010.98
2023-05-01T01:30:28.782Z,1010.99
2023-05-01T01:35:27.051Z,1010.98
2023-05-01T01:40:26.325Z,1010.93
2023-05-01T01:45:26.577Z,1010.90
2023-05-01T01:50:24.844Z,1010.95
2023-05-01T01:55:26.096Z,1010.96
2023-05-01T02:00:23.348Z,1011.02
2023-05-01T02:05:23.584Z,1011.00
2023-05-01T02:10:23.836Z,1011.00
2023-05-01T02:15:21.098Z,1010.98
2023-05-01T02:20:21.354Z,1010.94
2023-05-01T02:25:20.608Z,1010.98
2023-05-01T02:30:19.907Z,1010.95
2023-05-01T02:35:19.204Z,1010.89
2023-05-01T02:40:17.467Z,1010.88
2023-05-01T02:45:16.764Z,1010.86
2023-05-01T02:50:16.052Z,1010.85
2023-05-01T02:55:16.509Z,1010.82
2023-05-01T03:00:15.583Z,1010.81
2023-05-01T03:05:14.848Z,1010.77
2023-05-01T03:10:14.099Z,1010.78
2023-05-01T03:15:13.402Z,1010.77
2023-05-01T03:20:11.659Z,1010.80
2023-05-01T03:25:10.923Z,1010.72
2023-05-01T03:30:11.202Z,1010.76
2023-05-01T03:35:09.550Z,1010.75
2023-05-01T03:40:08.744Z,1010.78
2023-05-01T03:45:10.109Z,1010.79
2023-05-01T03:50:07.324Z,1010.71
2023-05-01T03:55:07.592Z,1010.78
2023-05-01T04:00:06.873Z,1010.86
2023-05-01T04:05:05.159Z,1010.82
2023-05-01T04:10:05.432Z,1010.78
2023-05-01T04:15:03.673Z,1010.85
2023-05-01T04:20:02.923Z,1010.93
2023-05-01T04:25:03.201Z,1010.95
2023-05-01T04:30:01.511Z,1010.92
2023-05-01T04:35:01.785Z,1010.98
2023-05-01T04:40:01.022Z,1010.95
2023-05-01T04:44:59.273Z,1011.03
2023-05-01T04:49:57.837Z,1011.07
2023-05-01T04:54:57.977Z,1011.05
2023-05-01T04:59:58.485Z,1011.06
2023-05-01T05:04:58.206Z,1011.11
2023-05-01T05:09:56.650Z,1011.21
2023-05-01T05:14:53.698Z,1011.31
2023-05-01T05:19:55.331Z,1011.22
2023-05-01T05:24:53.247Z,1011.27
2023-05-01T05:29:53.641Z,1011.32
2023-05-01T05:34:51.821Z,1011.34
2023-05-01T05:39:50.905Z,1011.34
2023-05-01T05:44:52.268Z,1011.36
2023-05-01T05:49:49.342Z,1011.33
2023-05-01T05:54:49.627Z,1011.32
2023-05-01T05:59:48.924Z,1011.40
2023-05-01T06:04:47.235Z,1011.43
2023-05-01T06:09:46.510Z,1011.35
2023-05-01T06:14:45.789Z,1011.41
2023-05-01T06:19:46.088Z,1011.36
2023-05-01T06:24:45.391Z,1011.37
2023-05-01T06:29:44.659Z,1011.36
2023-05-01T06:34:42.948Z,1011.35
2023-05-01T06:39:42.227Z,1011.42
2023-05-01T06:44:41.520Z,1011.45
2023-05-01T06:49:40.811Z,1011.47
2023-05-01T06:54:40.116Z,1011.48
2023-05-01T06:59:40.435Z,1011.57
2023-05-01T07:04:39.727Z,1011.60
2023-05-01T07:09:38.017Z,1011.63
2023-05-01T07:14:37.383Z,1011.63
2023-05-01T07:19:36.447Z,1011.64
2023-05-01T07:24:35.718Z,1011.66
2023-05-01T07:29:35.006Z,1011.62
2023-05-01T07:34:34.265Z,1011.61
2023-05-01T07:39:33.563Z,1011.65
2023-05-01T07:44:32.840Z,1011.66
2023-05-01T07:49:32.097Z,1011.65
2023-05-01T07:54:31.328Z,1011.61
2023-05-01T07:59:29.603Z,1011.64
2023-05-01T08:04:29.912Z,1011.64
2023-05-01T08:09:30.217Z,1011.69
2023-05-01T08:14:28.518Z,1011.75
2023-05-01T08:19:27.806Z,1011.73
2023-05-01T08:24:27.080Z,1011.81
2023-05-01T08:29:26.390Z,1011.84
2023-05-01T08:34:25.678Z,1011.84
2023-05-01T08:39:24.991Z,1011.83
2023-05-01T08:44:24.266Z,1011.84
2023-05-01T08:49:25.561Z,1011.93
2023-05-01T08:54:22.839Z,1011.93
2023-05-01T08:59:23.113Z,1011.91
2023-05-01T09:04:21.446Z,1011.97
2023-05-01T09:09:21.528Z,1011.98
2023-05-01T09:14:19.763Z,1011.99
2023-05-01T09:19:20.038Z,1011.99
2023-05-01T09:24:20.316Z,1012.02
2023-05-01T09:29:17.583Z,1012.05
2023-05-01T09:34:17.846Z,1012.01
2023-05-01T09:39:17.143Z,1012.07
2023-05-01T09:44:15.426Z,1012.12
2023-05-01T09:49:16.720Z,1011.99
2023-05-01T09:54:14.030Z,1012.06
2023-05-01T09:59:14.342Z,1012.04
2023-05-01T10:04:13.670Z,1012.04
2023-05-01T10:09:11.970Z,1011.98
2023-05-01T10:14:12.293Z,1012.03
2023-05-01T10:19:10.620Z,1012.01
2023-05-01T10:24:09.900Z,1012.02
2023-05-01T10:29:10.195Z,1012.01
2023-05-01T10:34:08.462Z,1012.08
2023-05-01T10:39:09.778Z,1012.05
2023-05-01T10:44:07.027Z,1012.00
2023-05-01T10:49:06.301Z,1011.93
2023-05-01T10:54:05.597Z,1011.96
2023-05-01T10:59:04.950Z,1011.87
2023-05-01T11:04:06.005Z,1011.87
2023-05-01T11:09:04.237Z,1011.87
2023-05-01T11:14:02.499Z,1011.89
2023-05-01T11:19:01.725Z,1011.88
2023-05-01T11:24:00.982Z,1011.79
2023-05-01T11:29:00.216Z,1011.73
2023-05-01T11:33:59.444Z,1011.74
2023-05-01T11:38:58.688Z,1011.74
2023-05-01T11:43:58.968Z,1011.78
2023-05-01T11:48:57.238Z,1011.70
2023-05-01T11:53:55.534Z,1011.67
2023-05-01T11:58:55.808Z,1011.63
2023-05-01T12:03:56.196Z,1011.60
2023-05-01T12:08:54.289Z,1011.63
2023-05-01T12:13:54.567Z,1011.54
2023-05-01T12:18:52.893Z,1011.51
2023-05-01T12:23:53.090Z,1011.53
2023-05-01T12:28:51.252Z,1011.53
2023-05-01T12:33:50.405Z,1011.58
2023-05-01T12:38:50.540Z,1011.52
2023-05-01T12:43:48.876Z,1011.57
2023-05-01T12:48:50.953Z,1011.55
2023-05-01T12:53:47.320Z,1011.44
2023-05-01T12:58:47.493Z,1011.46
2023-05-01T13:03:45.669Z,1011.43
2023-05-01T13:08:44.829Z,1011.40
2023-05-01T13:13:43.989Z,1011.34
2023-05-01T13:18:43.160Z,1011.49
2023-05-01T13:23:44.308Z,1011.49
2023-05-01T13:28:42.702Z,1011.42
2023-05-01T13:33:39.844Z,1011.36
2023-05-01T13:38:40.068Z,1011.44
2023-05-01T13:43:40.220Z,1011.38
2023-05-01T13:48:39.384Z,1011.39
2023-05-01T13:53:37.529Z,1011.47
2023-05-01T13:58:36.688Z,1011.51
2023-05-01T14:03:37.037Z,1011.49
2023-05-01T14:08:37.041Z,1011.43
2023-05-01T14:13:34.177Z,1011.49
2023-05-01T14:18:33.331Z,1011.46
2023-05-01T14:23:32.471Z,1011.49
2023-05-01T14:28:31.820Z,1011.53
2023-05-01T14:33:30.970Z,1011.60
2023-05-01T14:38:32.118Z,1011.61
2023-05-01T14:43:30.453Z,1011.73
2023-05-01T22:32:41.157Z,1014.84
2023-05-01T22:37:39.413Z,1014.84
2023-05-01T22:42:39.697Z,1015.09
2023-05-01T22:47:39.009Z,1015.27
2023-05-01T22:52:37.236Z,1015.08
2023-05-01T22:57:37.495Z,1015.13
2023-05-01T23:02:35.822Z,1015.14
2023-05-01T23:07:36.061Z,1015.23
2023-05-01T23:12:34.343Z,1015.27
2023-05-01T23:17:33.647Z,1015.29
2023-05-01T23:22:34.907Z,1015.39
2023-05-01T23:27:34.167Z,1015.41
2023-05-01T23:32:33.415Z,1015.39
2023-05-01T23:37:30.655Z,1015.34
2023-05-01T23:42:29.902Z,1015.39
2023-05-01T23:47:29.196Z,1015.38
2023-05-01T23:52:28.438Z,1015.37
2023-05-01T23:57:27.703Z,1015.38
